Time;durP1;ratioP1;P1;durP2;ratioP2;P2;SDS_P1;SDS_P2;PMS_P1;PMS_P2;Temp;Humidity;BMP_temperature;BMP_pressure;BME280_temperature;BME280_humidity;BME280_pressure;Samples;Min_cycle;Max_cycle;Signal;HPM_P1;HPM_P2
2022/09/19 00:01:45;;;;;;;21.48;2.22;;;;;;;;;;4991193;28;20388;-48
2022/09/19 00:04:20;;;;;;;19.70;1.67;;;;;;;;;;4992417;28;20027;-47
2022/09/19 00:06:49;;;;;;;10.45;1.52;;;;;;;;;;4990702;28;20034;-46
2022/09/19 00:09:19;;;;;;;28.83;1.98;;;;;;;;;;4989761;28;20781;-47
2022/09/19 00:11:49;;;;;;;25.13;1.40;;;;;;;;;;4989089;28;20150;-48
2022/09/19 00:14:18;;;;;;;22.05;1.38;;;;;;;;;;4989386;28;20041;-45
2022/09/19 00:16:46;;;;;;;14.88;1.92;;;;;;;;;;4990171;28;20027;-45
2022/09/19 00:19:16;;;;;;;11.27;1.38;;;;;;;;;;4990860;28;20048;-46
2022/09/19 00:21:44;;;;;;;11.25;1.80;;;;;;;;;;4990431;28;20109;-46
2022/09/19 00:26:58;;;;;;;18.23;1.50;;;;;;;;;;4989492;28;20045;-47
2022/09/19 00:29:25;;;;;;;14.85;1.63;;;;;;;;;;4990583;28;20026;-50
2022/09/19 00:31:52;;;;;;;11.48;1.55;;;;;;;;;;4991529;28;20022;-44
2022/09/19 00:34:20;;;;;;;14.13;1.30;;;;;;;;;;4990722;28;20035;-48
2022/09/19 00:36:47;;;;;;;18.27;1.67;;;;;;;;;;4991546;28;20030;-47
2022/09/19 00:39:17;;;;;;;13.00;2.15;;;;;;;;;;4991047;28;20488;-48
2022/09/19 00:41:49;;;;;;;11.10;1.52;;;;;;;;;;4984758;28;20023;-45
2022/09/19 00:44:25;;;;;;;16.73;1.50;;;;;;;;;;4982961;28;20497;-48
2022/09/19 00:46:59;;;;;;;11.68;1.38;;;;;;;;;;4982500;28;20507;-47
2022/09/19 00:49:33;;;;;;;12.63;1.42;;;;;;;;;;4985952;28;20042;-44
2022/09/19 00:52:08;;;;;;;12.05;1.15;;;;;;;;;;4980630;28;20022;-45
2022/09/19 00:54:41;;;;;;;10.25;1.20;;;;;;;;;;4972825;28;20031;-45
2022/09/19 00:57:14;;;;;;;15.40;1.52;;;;;;;;;;4972730;28;20038;-46
2022/09/19 00:59:50;;;;;;;8.75;1.23;;;;;;;;;;4972622;28;20030;-44
2022/09/19 01:02:23;;;;;;;12.40;1.63;;;;;;;;;;4973020;28;20098;-45
2022/09/19 01:04:53;;;;;;;14.70;1.38;;;;;;;;;;4972935;28;20038;-44
2022/09/19 01:07:37;;;;;;;14.50;1.98;;;;;;;;;;4979948;28;20034;-45
2022/09/19 01:10:10;;;;;;;12.48;1.45;;;;;;;;;;4992218;28;20019;-45
2022/09/19 01:12:47;;;;;;;7.88;1.13;;;;;;;;;;4991416;28;20153;-45
2022/09/19 01:15:24;;;;;;;5.20;1.13;;;;;;;;;;4993670;28;20050;-47
2022/09/19 01:17:59;;;;;;;8.00;1.05;;;;;;;;;;4986409;28;20037;-46
2022/09/19 01:20:35;;;;;;;10.32;1.30;;;;;;;;;;4984928;28;20031;-51
2022/09/19 01:23:16;;;;;;;10.07;1.02;;;;;;;;;;4993859;28;20034;-46
2022/09/19 01:26:06;;;;;;;4.75;0.88;;;;;;;;;;4995935;28;20029;-46
2022/09/19 01:28:46;;;;;;;8.13;0.93;;;;;;;;;;4996289;28;20030;-45
2022/09/19 01:31:27;;;;;;;6.18;1.13;;;;;;;;;;4994925;28;20038;-46
2022/09/19 01:34:02;;;;;;;8.35;1.25;;;;;;;;;;4995679;28;20484;-46
2022/09/19 01:37:02;;;;;;;7.30;1.45;;;;;;;;;;4995567;28;20034;-46
2022/09/19 01:39:34;;;;;;;6.15;1.08;;;;;;;;;;4987670;28;20034;-46
2022/09/19 01:42:04;;;;;;;7.93;1.00;;;;;;;;;;4995506;28;20392;-46
2022/09/19 01:44:34;;;;;;;9.90;1.05;;;;;;;;;;4994356;28;20042;-45
2022/09/19 01:47:17;;;;;;;6.05;0.90;;;;;;;;;;4995613;28;20112;-48
2022/09/19 01:49:56;;;;;;;8.25;0.95;;;;;;;;;;4995440;28;20055;-46
2022/09/19 01:52:36;;;;;;;6.22;1.10;;;;;;;;;;4995008;28;20029;-45
2022/09/19 01:55:15;;;;;;;9.13;1.05;;;;;;;;;;4992881;28;20476;-47
2022/09/19 01:58:07;;;;;;;6.57;0.80;;;;;;;;;;4994519;28;20052;-49
2022/09/19 02:00:41;;;;;;;6.05;1.00;;;;;;;;;;4993788;28;20109;-46
2022/09/19 02:03:22;;;;;;;5.75;1.00;;;;;;;;;;4994154;28;20535;-46
2022/09/19 02:06:01;;;;;;;4.40;0.60;;;;;;;;;;4993086;28;20116;-47
2022/09/19 02:08:31;;;;;;;3.90;0.85;;;;;;;;;;4992797;28;20050;-47
2022/09/19 02:11:14;;;;;;;3.35;0.70;;;;;;;;;;4994040;28;20029;-46
2022/09/19 02:13:48;;;;;;;3.08;0.73;;;;;;;;;;4991879;28;20084;-46
2022/09/19 02:16:19;;;;;;;3.55;0.85;;;;;;;;;;4993869;28;20034;-46
2022/09/19 02:18:53;;;;;;;1.73;0.50;;;;;;;;;;4993787;28;20030;-46
2022/09/19 02:21:28;;;;;;;3.05;0.70;;;;;;;;;;4991543;28;20161;-46
2022/09/19 02:24:05;;;;;;;1.92;0.52;;;;;;;;;;4994874;28;20116;-45
2022/09/19 02:26:36;;;;;;;1.50;0.60;;;;;;;;;;4995112;28;20021;-46
2022/09/19 02:29:08;;;;;;;3.13;0.47;;;;;;;;;;4995176;28;20097;-46
2022/09/19 02:31:38;;;;;;;1.85;0.70;;;;;;;;;;4995060;28;20626;-46
2022/09/19 02:34:09;;;;;;;1.70;0.50;;;;;;;;;;4994877;28;20778;-47
2022/09/19 02:36:59;;;;;;;0.80;0.30;;;;;;;;;;4995137;28;20100;-45
2022/09/19 02:39:33;;;;;;;1.55;0.60;;;;;;;;;;4988120;28;20047;-45
2022/09/19 02:42:12;;;;;;;1.25;0.40;;;;;;;;;;4995048;28;20392;-47
2022/09/19 02:44:52;;;;;;;0.93;0.40;;;;;;;;;;4994667;28;20033;-46
2022/09/19 02:47:31;;;;;;;2.85;0.60;;;;;;;;;;4994795;28;20480;-48
2022/09/19 02:50:14;;;;;;;1.27;0.47;;;;;;;;;;4994412;28;20415;-46
2022/09/19 02:52:45;;;;;;;3.83;0.40;;;;;;;;;;4994833;28;20182;-46
2022/09/19 02:55:16;;;;;;;1.17;0.60;;;;;;;;;;4994771;28;20030;-46
2022/09/19 02:57:49;;;;;;;2.53;0.40;;;;;;;;;;4994738;28;20161;-47
2022/09/19 03:00:25;;;;;;;0.70;0.35;;;;;;;;;;4994474;28;20102;-47
2022/09/19 03:02:58;;;;;;;1.15;0.30;;;;;;;;;;4994189;28;20150;-46
2022/09/19 03:05:29;;;;;;;1.02;0.52;;;;;;;;;;4994464;28;20029;-45
2022/09/19 03:08:04;;;;;;;2.60;0.38;;;;;;;;;;4994500;28;20485;-45
2022/09/19 03:10:36;;;;;;;0.57;0.32;;;;;;;;;;4993978;28;20072;-46
2022/09/19 03:13:11;;;;;;;2.22;0.45;;;;;;;;;;4994296;28;20174;-45
2022/09/19 03:15:58;;;;;;;1.63;0.45;;;;;;;;;;4994139;28;20507;-48
2022/09/19 03:18:28;;;;;;;0.65;0.40;;;;;;;;;;4994205;28;20027;-48
2022/09/19 03:21:02;;;;;;;1.25;0.30;;;;;;;;;;4994127;28;20488;-46
2022/09/19 03:23:34;;;;;;;2.20;0.28;;;;;;;;;;4994269;28;20093;-46
2022/09/19 03:26:04;;;;;;;0.70;0.30;;;;;;;;;;4994196;28;20045;-46
2022/09/19 03:28:33;;;;;;;0.45;0.30;;;;;;;;;;4994293;28;20350;-45
2022/09/19 03:31:03;;;;;;;0.85;0.30;;;;;;;;;;4994052;28;20492;-47
2022/09/19 03:33:34;;;;;;;2.25;0.30;;;;;;;;;;4994067;28;20383;-46
2022/09/19 03:36:08;;;;;;;0.60;0.20;;;;;;;;;;4993184;28;20105;-46
2022/09/19 03:38:47;;;;;;;2.28;0.20;;;;;;;;;;4993714;28;20161;-45
2022/09/19 03:41:25;;;;;;;1.98;0.40;;;;;;;;;;4994032;28;20018;-45
2022/09/19 03:44:01;;;;;;;1.83;0.28;;;;;;;;;;4993898;28;20023;-46
2022/09/19 03:46:33;;;;;;;1.10;0.20;;;;;;;;;;4993639;28;20113;-45
2022/09/19 03:49:03;;;;;;;0.30;0.15;;;;;;;;;;4993780;28;20022;-47
2022/09/19 03:51:34;;;;;;;1.83;0.20;;;;;;;;;;4993247;28;20539;-45
2022/09/19 03:54:04;;;;;;;0.82;0.20;;;;;;;;;;4993657;28;20019;-45
2022/09/19 03:56:34;;;;;;;0.50;0.20;;;;;;;;;;4993619;28;20105;-47
2022/09/19 03:59:04;;;;;;;1.73;0.20;;;;;;;;;;4993614;28;20115;-47
2022/09/19 04:01:34;;;;;;;0.30;0.20;;;;;;;;;;4993468;28;20034;-46
2022/09/19 04:04:06;;;;;;;0.22;0.20;;;;;;;;;;4993367;28;20022;-47
2022/09/19 04:06:40;;;;;;;2.03;0.30;;;;;;;;;;4993556;28;20015;-45
2022/09/19 04:09:13;;;;;;;0.47;0.20;;;;;;;;;;4993431;28;20034;-46
2022/09/19 04:11:46;;;;;;;0.28;0.20;;;;;;;;;;4993443;28;20019;-48
2022/09/19 04:14:20;;;;;;;0.20;0.10;;;;;;;;;;4993214;28;20030;-48
2022/09/19 04:16:54;;;;;;;0.75;0.22;;;;;;;;;;4993392;28;20365;-45
2022/09/19 04:19:28;;;;;;;0.65;0.13;;;;;;;;;;4993092;28;20496;-45
2022/09/19 04:21:59;;;;;;;0.20;0.20;;;;;;;;;;4993229;28;20073;-46
2022/09/19 04:24:26;;;;;;;1.55;0.30;;;;;;;;;;5003515;28;20038;-47
2022/09/19 04:26:53;;;;;;;2.63;0.17;;;;;;;;;;4993288;28;20027;-45
2022/09/19 04:29:20;;;;;;;0.30;0.10;;;;;;;;;;4993042;28;20519;-48
2022/09/19 04:31:47;;;;;;;1.85;0.40;;;;;;;;;;4993273;28;20101;-48
2022/09/19 04:34:14;;;;;;;0.10;0.10;;;;;;;;;;4993097;28;20045;-45
2022/09/19 04:36:42;;;;;;;0.25;0.10;;;;;;;;;;4993233;28;20045;-46
2022/09/19 04:39:09;;;;;;;1.38;0.13;;;;;;;;;;4993029;28;20031;-47
2022/09/19 04:41:37;;;;;;;0.15;0.10;;;;;;;;;;4992921;28;20105;-47
2022/09/19 04:44:05;;;;;;;0.10;0.10;;;;;;;;;;4993070;28;20025;-49
2022/09/19 04:46:32;;;;;;;0.10;0.10;;;;;;;;;;4993292;28;20022;-45
2022/09/19 04:48:59;;;;;;;0.17;0.17;;;;;;;;;;4997002;28;20121;-47
2022/09/19 04:51:30;;;;;;;1.48;0.20;;;;;;;;;;4996814;28;20056;-48
2022/09/19 04:53:57;;;;;;;0.52;0.30;;;;;;;;;;4996761;28;20109;-48
2022/09/19 04:56:26;;;;;;;0.17;0.10;;;;;;;;;;4996888;28;20018;-45
2022/09/19 04:58:53;;;;;;;0.35;0.20;;;;;;;;;;4996789;28;20052;-47
2022/09/19 05:01:20;;;;;;;0.25;0.20;;;;;;;;;;4996835;28;20058;-47
2022/09/19 05:03:48;;;;;;;0.50;0.20;;;;;;;;;;4996711;28;20026;-47
2022/09/19 05:06:15;;;;;;;0.10;0.10;;;;;;;;;;4996621;28;20480;-46
2022/09/19 05:08:43;;;;;;;1.95;0.30;;;;;;;;;;4996562;28;20029;-46
2022/09/19 05:11:10;;;;;;;1.25;0.20;;;;;;;;;;4996718;28;20034;-47
2022/09/19 05:13:41;;;;;;;0.55;0.30;;;;;;;;;;4996423;28;20023;-47
2022/09/19 05:16:08;;;;;;;0.30;0.20;;;;;;;;;;4996450;28;20416;-46
2022/09/19 05:18:37;;;;;;;0.10;0.10;;;;;;;;;;4996424;28;20027;-48
2022/09/19 05:21:05;;;;;;;0.43;0.10;;;;;;;;;;4996513;28;20547;-45
2022/09/19 05:23:32;;;;;;;0.10;0.10;;;;;;;;;;4996323;28;20026;-45
2022/09/19 05:26:03;;;;;;;0.25;0.10;;;;;;;;;;4996366;28;20080;-46
2022/09/19 05:28:30;;;;;;;0.47;0.20;;;;;;;;;;4996195;28;20097;-45
2022/09/19 05:30:57;;;;;;;0.10;0.10;;;;;;;;;;4996345;28;20076;-48
2022/09/19 05:33:27;;;;;;;0.10;0.10;;;;;;;;;;4996574;28;20034;-47
2022/09/19 05:36:00;;;;;;;0.32;0.20;;;;;;;;;;4995970;28;20058;-46
2022/09/19 05:38:27;;;;;;;1.65;0.10;;;;;;;;;;4995947;28;20170;-45
2022/09/19 05:40:55;;;;;;;0.10;0.10;;;;;;;;;;4996289;28;20110;-48
2022/09/19 05:43:22;;;;;;;1.08;0.20;;;;;;;;;;4996171;28;20494;-47
2022/09/19 05:45:51;;;;;;;0.52;0.10;;;;;;;;;;4995915;28;20084;-45
2022/09/19 05:48:18;;;;;;;0.35;0.10;;;;;;;;;;4995944;28;20088;-46
2022/09/19 05:50:45;;;;;;;0.10;0.10;;;;;;;;;;4995768;28;20042;-48
2022/09/19 05:55:57;;;;;;;0.13;0.10;;;;;;;;;;4995927;28;20050;-45
2022/09/19 05:58:24;;;;;;;0.38;0.10;;;;;;;;;;4994750;28;20149;-47
2022/09/19 06:00:52;;;;;;;0.10;0.10;;;;;;;;;;4992849;28;20034;-49
2022/09/19 06:03:21;;;;;;;0.10;0.10;;;;;;;;;;4993885;28;20408;-45
2022/09/19 06:05:48;;;;;;;0.35;0.10;;;;;;;;;;4995422;28;20117;-45
2022/09/19 06:08:16;;;;;;;0.10;0.10;;;;;;;;;;4995228;28;20030;-47
2022/09/19 06:10:44;;;;;;;0.20;0.13;;;;;;;;;;4995517;28;20037;-45
2022/09/19 06:13:13;;;;;;;0.10;0.10;;;;;;;;;;4995298;28;20393;-46
2022/09/19 06:15:40;;;;;;;0.10;0.10;;;;;;;;;;4995508;28;20596;-46
2022/09/19 06:18:09;;;;;;;0.10;0.10;;;;;;;;;;4995569;28;20452;-48
2022/09/19 06:20:37;;;;;;;0.10;0.10;;;;;;;;;;4995214;28;20042;-45
2022/09/19 06:23:06;;;;;;;0.10;0.10;;;;;;;;;;4995446;28;20018;-45
2022/09/19 06:25:34;;;;;;;0.10;0.10;;;;;;;;;;4995225;28;20041;-45
2022/09/19 06:28:02;;;;;;;0.52;0.10;;;;;;;;;;4995414;28;20033;-45
2022/09/19 06:30:29;;;;;;;0.20;0.10;;;;;;;;;;4994979;28;20032;-47
2022/09/19 06:32:56;;;;;;;0.10;0.10;;;;;;;;;;4995235;28;20030;-45
2022/09/19 06:35:28;;;;;;;0.08;0.08;;;;;;;;;;4993836;28;20518;-45
2022/09/19 06:37:55;;;;;;;;;;;;;;;;;;4995418;28;20452;-45
2022/09/19 06:40:22;;;;;;;0.10;0.10;;;;;;;;;;4994904;28;19968;-50
2022/09/19 06:42:50;;;;;;;0.10;0.10;;;;;;;;;;4995027;28;20029;-47
2022/09/19 06:45:17;;;;;;;0.10;0.10;;;;;;;;;;4994831;28;20042;-46
2022/09/19 06:47:44;;;;;;;0.17;0.10;;;;;;;;;;4994852;28;20034;-47
2022/09/19 06:50:13;;;;;;;0.20;0.10;;;;;;;;;;4994389;28;20042;-45
2022/09/19 06:52:46;;;;;;;0.20;0.10;;;;;;;;;;4994617;28;20023;-45
2022/09/19 06:55:13;;;;;;;0.10;0.10;;;;;;;;;;4994703;28;20034;-47
2022/09/19 06:57:40;;;;;;;0.10;0.10;;;;;;;;;;4994691;28;20034;-47
2022/09/19 07:00:07;;;;;;;0.20;0.10;;;;;;;;;;4994526;28;20404;-45
2022/09/19 07:02:34;;;;;;;0.10;0.10;;;;;;;;;;4994451;28;20030;-46
2022/09/19 07:05:01;;;;;;;0.63;0.10;;;;;;;;;;4994617;28;20054;-46
2022/09/19 07:07:28;;;;;;;0.10;0.10;;;;;;;;;;4994471;28;20034;-46
2022/09/19 07:09:55;;;;;;;0.10;0.10;;;;;;;;;;4994351;28;20507;-45
2022/09/19 07:12:22;;;;;;;0.00;0.00;;;;;;;;;;4994510;28;20034;-45
2022/09/19 07:14:49;;;;;;;0.10;0.10;;;;;;;;;;4994082;28;20036;-46
2022/09/19 07:17:16;;;;;;;1.20;0.10;;;;;;;;;;4994249;28;20044;-45
2022/09/19 07:19:44;;;;;;;0.10;0.10;;;;;;;;;;4994203;28;20036;-46
2022/09/19 07:22:11;;;;;;;0.10;0.10;;;;;;;;;;4994155;28;20093;-46
2022/09/19 07:24:38;;;;;;;0.10;0.10;;;;;;;;;;4994076;28;20041;-45
2022/09/19 07:27:05;;;;;;;0.30;0.10;;;;;;;;;;4992834;28;20484;-46
2022/09/19 07:29:31;;;;;;;0.10;0.10;;;;;;;;;;4994061;28;20030;-48
2022/09/19 07:31:59;;;;;;;0.10;0.10;;;;;;;;;;4994089;28;20030;-47
2022/09/19 07:34:26;;;;;;;0.10;0.10;;;;;;;;;;4994093;28;20264;-46
2022/09/19 07:36:53;;;;;;;0.10;0.10;;;;;;;;;;4993929;28;20076;-46
2022/09/19 07:39:20;;;;;;;0.10;0.10;;;;;;;;;;4993680;28;20029;-45
2022/09/19 07:41:47;;;;;;;0.15;0.10;;;;;;;;;;4993906;28;20032;-45
2022/09/19 07:44:15;;;;;;;0.10;0.10;;;;;;;;;;4993945;28;20026;-46
2022/09/19 07:47:26;;;;;;;0.10;0.10;;;;;;;;;;4993772;28;20109;-45
2022/09/19 07:49:28;;;;;;;0.10;0.10;;;;;;;;;;4993164;28;20066;-46
2022/09/19 07:51:55;;;;;;;0.10;0.10;;;;;;;;;;4993788;28;20031;-46
2022/09/19 07:54:22;;;;;;;0.20;0.10;;;;;;;;;;4993662;28;20106;-45
2022/09/19 07:56:49;;;;;;;0.10;0.10;;;;;;;;;;4993669;28;20034;-45
2022/09/19 07:59:17;;;;;;;0.10;0.10;;;;;;;;;;4993532;28;20492;-46
2022/09/19 08:01:44;;;;;;;0.10;0.10;;;;;;;;;;4993446;28;20038;-45
2022/09/19 08:04:11;;;;;;;1.45;0.10;;;;;;;;;;4993380;28;20400;-45
2022/09/19 08:06:38;;;;;;;0.50;0.10;;;;;;;;;;4993466;28;20023;-46
2022/09/19 08:09:05;;;;;;;0.10;0.10;;;;;;;;;;4993538;28;20026;-46
2022/09/19 08:11:36;;;;;;;0.10;0.10;;;;;;;;;;4993543;28;20026;-48
2022/09/19 08:14:04;;;;;;;0.10;0.10;;;;;;;;;;4993393;28;20507;-45
2022/09/19 08:16:31;;;;;;;0.10;0.10;;;;;;;;;;4993207;28;20038;-46
2022/09/19 08:18:58;;;;;;;1.50;0.10;;;;;;;;;;4993265;28;20030;-46
2022/09/19 08:21:26;;;;;;;0.10;0.10;;;;;;;;;;4992918;28;20037;-45
2022/09/19 08:23:53;;;;;;;0.10;0.10;;;;;;;;;;4993395;28;20587;-45
2022/09/19 08:26:21;;;;;;;0.10;0.10;;;;;;;;;;4993140;28;20033;-47
2022/09/19 08:28:50;;;;;;;0.10;0.10;;;;;;;;;;4993187;28;20045;-45
2022/09/19 08:31:17;;;;;;;0.40;0.10;;;;;;;;;;4993180;28;20030;-46
2022/09/19 08:33:45;;;;;;;0.52;0.20;;;;;;;;;;4993182;28;20033;-47
2022/09/19 08:36:12;;;;;;;0.35;0.10;;;;;;;;;;4992901;28;20477;-47
2022/09/19 08:38:39;;;;;;;0.10;0.10;;;;;;;;;;4992983;28;20093;-45
2022/09/19 08:41:25;;;;;;;1.45;0.20;;;;;;;;;;4993147;28;20042;-47
2022/09/19 08:43:52;;;;;;;0.10;0.10;;;;;;;;;;4993166;28;20109;-47
2022/09/19 08:46:19;;;;;;;0.10;0.10;;;;;;;;;;4993051;28;20459;-47
2022/09/19 08:48:46;;;;;;;0.20;0.10;;;;;;;;;;4992747;28;20416;-45
2022/09/19 08:51:21;;;;;;;0.15;0.10;;;;;;;;;;4992910;28;20050;-45
2022/09/19 08:53:51;;;;;;;0.20;0.10;;;;;;;;;;4992989;28;20366;-48
2022/09/19 08:56:19;;;;;;;0.30;0.10;;;;;;;;;;4992706;28;20176;-47
2022/09/19 08:58:49;;;;;;;0.15;0.10;;;;;;;;;;4992786;28;20030;-46
2022/09/19 09:01:16;;;;;;;0.10;0.10;;;;;;;;;;4993049;28;20025;-46
2022/09/19 09:03:51;;;;;;;0.10;0.10;;;;;;;;;;4992956;28;20110;-45
2022/09/19 09:06:27;;;;;;;0.95;0.17;;;;;;;;;;4992842;28;20035;-45
2022/09/19 09:09:14;;;;;;;0.22;0.10;;;;;;;;;;4992752;28;20030;-47
2022/09/19 09:11:51;;;;;;;0.70;0.10;;;;;;;;;;4992836;28;20023;-47
2022/09/19 09:14:25;;;;;;;0.10;0.10;;;;;;;;;;4992884;28;20019;-46
2022/09/19 09:17:04;;;;;;;0.10;0.10;;;;;;;;;;4992844;28;20046;-45
2022/09/19 09:19:49;;;;;;;0.10;0.10;;;;;;;;;;4992818;28;20018;-48
2022/09/19 09:22:34;;;;;;;0.10;0.10;;;;;;;;;;4992715;28;20105;-45
2022/09/19 09:25:20;;;;;;;0.10;0.10;;;;;;;;;;4992754;28;20030;-45
2022/09/19 09:27:57;;;;;;;0.10;0.10;;;;;;;;;;4992752;28;20057;-48
2022/09/19 09:30:24;;;;;;;0.10;0.10;;;;;;;;;;4992710;28;20030;-46
2022/09/19 09:33:10;;;;;;;0.45;0.10;;;;;;;;;;4992621;28;20034;-45
2022/09/19 09:35:41;;;;;;;8.20;0.50;;;;;;;;;;4995381;28;20415;-50
2022/09/19 09:38:19;;;;;;;2.63;0.22;;;;;;;;;;4996023;28;20047;-50
2022/09/19 09:43:43;;;;;;;1.85;0.10;;;;;;;;;;4995993;28;20449;-45
2022/09/19 09:46:13;;;;;;;0.10;0.10;;;;;;;;;;4995644;28;20034;-50
2022/09/19 09:48:40;;;;;;;1.13;0.20;;;;;;;;;;4995995;28;20024;-46
2022/09/19 09:51:10;;;;;;;0.38;0.20;;;;;;;;;;4995664;28;20060;-47
2022/09/19 09:53:55;;;;;;;0.10;0.10;;;;;;;;;;4995989;28;20081;-48
2022/09/19 09:56:40;;;;;;;0.47;0.10;;;;;;;;;;4995706;28;20026;-46
2022/09/19 10:05:08;;;;;;;0.93;0.10;;;;;;;;;;4996014;28;20093;-46
2022/09/19 10:07:40;;;;;;;1.83;0.13;;;;;;;;;;4994747;28;20045;-47
2022/09/19 10:10:14;;;;;;;0.55;0.10;;;;;;;;;;4994613;28;20034;-49
2022/09/19 10:12:45;;;;;;;0.25;0.10;;;;;;;;;;4994728;28;20022;-47
2022/09/19 10:15:21;;;;;;;0.13;0.10;;;;;;;;;;4994836;28;20030;-47
2022/09/19 10:17:52;;;;;;;0.30;0.17;;;;;;;;;;4993941;28;20034;-46
2022/09/19 10:20:22;;;;;;;0.10;0.10;;;;;;;;;;4995466;28;20467;-46
2022/09/19 10:22:49;;;;;;;0.13;0.10;;;;;;;;;;4995204;28;20045;-45
2022/09/19 10:25:18;;;;;;;0.10;0.10;;;;;;;;;;4994867;28;20027;-47
2022/09/19 10:27:49;;;;;;;0.68;0.20;;;;;;;;;;4995185;28;20030;-46
2022/09/19 10:30:22;;;;;;;0.10;0.10;;;;;;;;;;4995410;28;20544;-47
2022/09/19 10:32:50;;;;;;;0.10;0.10;;;;;;;;;;4994443;28;20038;-48
2022/09/19 10:35:47;;;;;;;1.35;0.10;;;;;;;;;;4995016;28;20040;-46
2022/09/19 10:38:18;;;;;;;0.70;0.20;;;;;;;;;;4986756;28;20045;-47
2022/09/19 10:40:56;;;;;;;1.55;0.10;;;;;;;;;;4995203;28;20048;-45
2022/09/19 10:43:30;;;;;;;0.10;0.10;;;;;;;;;;4994133;28;20030;-47
2022/09/19 10:45:58;;;;;;;0.45;0.10;;;;;;;;;;4994588;28;20392;-48
2022/09/19 10:48:31;;;;;;;0.10;0.10;;;;;;;;;;4994053;28;20043;-47
2022/09/19 10:50:59;;;;;;;0.95;0.17;;;;;;;;;;4994803;28;20042;-47
2022/09/19 10:53:28;;;;;;;0.30;0.17;;;;;;;;;;4993306;28;20497;-47
2022/09/19 10:55:58;;;;;;;0.52;0.10;;;;;;;;;;4991057;28;20056;-47
2022/09/19 10:58:27;;;;;;;0.20;0.20;;;;;;;;;;4993291;28;20505;-46
2022/09/19 11:00:56;;;;;;;1.58;0.20;;;;;;;;;;4990901;28;20383;-47
2022/09/19 11:03:30;;;;;;;1.48;0.25;;;;;;;;;;4993242;28;20022;-47
2022/09/19 11:06:18;;;;;;;0.35;0.20;;;;;;;;;;4991196;28;20053;-49
2022/09/19 11:08:46;;;;;;;0.47;0.30;;;;;;;;;;4991162;28;20658;-53
2022/09/19 11:11:25;;;;;;;1.40;0.40;;;;;;;;;;4992904;28;20107;-47
2022/09/19 11:14:11;;;;;;;1.77;0.40;;;;;;;;;;4993068;28;20092;-47
2022/09/19 11:17:04;;;;;;;8.30;0.73;;;;;;;;;;4991079;28;20038;-47
2022/09/19 11:19:34;;;;;;;4.75;0.60;;;;;;;;;;4992454;28;20054;-47
2022/09/19 11:22:11;;;;;;;3.92;0.55;;;;;;;;;;4992322;28;20158;-47
2022/09/19 11:24:38;;;;;;;1.92;0.47;;;;;;;;;;4993523;28;20033;-50
2022/09/19 11:27:23;;;;;;;5.70;0.77;;;;;;;;;;4990665;28;20487;-45
2022/09/19 11:30:00;;;;;;;15.60;1.20;;;;;;;;;;4989899;28;20065;-47
2022/09/19 11:32:34;;;;;;;8.82;1.00;;;;;;;;;;4973467;28;20461;-46
2022/09/19 11:35:14;;;;;;;5.65;1.02;;;;;;;;;;4974211;28;20042;-47
2022/09/19 11:37:53;;;;;;;6.35;0.90;;;;;;;;;;4973407;28;20042;-48
2022/09/19 11:40:26;;;;;;;9.52;0.90;;;;;;;;;;4974196;28;20090;-48
2022/09/19 11:43:05;;;;;;;13.68;1.67;;;;;;;;;;4974402;28;20504;-45
2022/09/19 11:45:42;;;;;;;14.68;0.85;;;;;;;;;;4973502;28;20077;-48
2022/09/19 11:48:21;;;;;;;22.17;1.42;;;;;;;;;;4974035;28;20400;-45
2022/09/19 11:51:06;;;;;;;6.30;0.80;;;;;;;;;;4974151;28;20054;-47
2022/09/19 11:53:57;;;;;;;3.95;0.70;;;;;;;;;;4974235;28;20035;-48
2022/09/19 11:56:26;;;;;;;6.20;0.50;;;;;;;;;;4963528;28;20047;-46
2022/09/19 11:58:53;;;;;;;3.65;0.50;;;;;;;;;;4974062;28;20031;-45
2022/09/19 12:01:31;;;;;;;14.02;1.80;;;;;;;;;;4973941;28;20038;-46
2022/09/19 12:04:10;;;;;;;7.78;0.85;;;;;;;;;;4974183;28;20054;-46
2022/09/19 12:06:56;;;;;;;7.28;1.00;;;;;;;;;;4972968;28;20035;-46
2022/09/19 12:09:31;;;;;;;9.10;0.77;;;;;;;;;;4991127;28;20038;-47
2022/09/19 12:12:18;;;;;;;5.13;0.60;;;;;;;;;;4988335;28;20079;-45
2022/09/19 12:15:09;;;;;;;2.58;0.63;;;;;;;;;;4992828;28;20093;-51
2022/09/19 12:17:42;;;;;;;2.13;0.50;;;;;;;;;;4988061;28;20587;-45
2022/09/19 12:20:15;;;;;;;5.13;0.77;;;;;;;;;;4985016;28;20848;-48
2022/09/19 12:22:46;;;;;;;5.38;0.55;;;;;;;;;;4992667;28;20775;-46
2022/09/19 12:25:22;;;;;;;5.90;0.68;;;;;;;;;;4988966;28;20034;-45
2022/09/19 12:28:01;;;;;;;2.42;0.55;;;;;;;;;;4990602;28;20475;-47
2022/09/19 12:30:31;;;;;;;9.57;1.10;;;;;;;;;;4992764;28;20030;-46
2022/09/19 12:32:59;;;;;;;8.15;1.00;;;;;;;;;;4992279;28;20034;-45
2022/09/19 12:35:44;;;;;;;10.57;1.60;;;;;;;;;;4992713;28;20041;-46
2022/09/19 12:38:26;;;;;;;10.55;1.25;;;;;;;;;;4991794;28;20038;-46
2022/09/19 12:41:01;;;;;;;4.28;0.70;;;;;;;;;;4991255;28;20061;-45
2022/09/19 12:43:38;;;;;;;4.25;0.60;;;;;;;;;;4991735;28;20504;-50
2022/09/19 12:46:14;;;;;;;3.42;0.65;;;;;;;;;;4977469;28;20118;-47
2022/09/19 12:49:03;;;;;;;1.98;0.50;;;;;;;;;;4971941;28;20393;-49
2022/09/19 12:51:50;;;;;;;5.93;0.70;;;;;;;;;;4972975;28;20070;-47
2022/09/19 12:54:17;;;;;;;4.50;0.85;;;;;;;;;;4988739;28;20114;-46
2022/09/19 12:56:47;;;;;;;3.53;0.68;;;;;;;;;;4990744;28;20050;-46
2022/09/19 12:59:14;;;;;;;3.30;0.50;;;;;;;;;;4991615;28;20041;-46
2022/09/19 13:01:41;;;;;;;7.88;0.70;;;;;;;;;;4992682;28;20477;-48
2022/09/19 13:04:25;;;;;;;5.05;0.40;;;;;;;;;;5011908;28;20463;-46
2022/09/19 13:06:54;;;;;;;4.38;0.73;;;;;;;;;;5011559;28;20062;-45
2022/09/19 13:09:23;;;;;;;4.50;0.85;;;;;;;;;;5015042;28;20092;-44
2022/09/19 13:11:55;;;;;;;8.82;1.10;;;;;;;;;;5014485;28;20057;-47
2022/09/19 13:14:30;;;;;;;4.43;1.10;;;;;;;;;;5015499;28;20040;-47
2022/09/19 13:25:29;;;;;;;11.93;1.73;;;;;;;;;;5016206;28;20057;-47
2022/09/19 13:28:17;;;;;;;9.57;1.23;;;;;;;;;;5015174;28;20076;-46
2022/09/19 13:30:49;;;;;;;8.32;1.50;;;;;;;;;;5015624;28;20116;-45
2022/09/19 13:33:23;;;;;;;7.32;1.00;;;;;;;;;;5014588;28;20140;-46
2022/09/19 13:35:52;;;;;;;12.90;1.10;;;;;;;;;;5009117;28;20400;-45
2022/09/19 13:38:25;;;;;;;9.13;1.00;;;;;;;;;;4995637;28;20053;-48
2022/09/19 13:41:00;;;;;;;16.60;1.40;;;;;;;;;;4995774;28;20489;-48
2022/09/19 13:43:52;;;;;;;15.60;1.42;;;;;;;;;;4995018;28;20507;-46
2022/09/19 13:46:45;;;;;;;7.50;1.30;;;;;;;;;;4994937;28;20468;-46
2022/09/19 13:49:18;;;;;;;5.30;1.10;;;;;;;;;;4973937;28;20165;-46
2022/09/19 13:52:05;;;;;;;8.63;1.17;;;;;;;;;;4995726;28;20181;-48
2022/09/19 13:54:37;;;;;;;6.55;1.20;;;;;;;;;;4987946;28;20070;-45
2022/09/19 13:57:06;;;;;;;4.97;1.13;;;;;;;;;;4995230;28;20416;-46
2022/09/19 13:59:39;;;;;;;11.55;1.70;;;;;;;;;;4995464;28;20053;-49
2022/09/19 14:02:20;;;;;;;8.30;1.20;;;;;;;;;;4995640;28;20519;-46
2022/09/19 14:04:55;;;;;;;10.35;1.15;;;;;;;;;;4988322;28;20378;-48
2022/09/19 14:07:28;;;;;;;9.77;1.50;;;;;;;;;;4994553;28;20066;-45
2022/09/19 14:10:06;;;;;;;7.63;1.05;;;;;;;;;;4999219;28;20440;-46
2022/09/19 14:12:43;;;;;;;6.75;0.85;;;;;;;;;;5014665;28;20045;-46
2022/09/19 14:15:28;;;;;;;4.55;0.85;;;;;;;;;;5013786;28;20038;-49
2022/09/19 14:18:14;;;;;;;4.60;0.75;;;;;;;;;;5014000;28;20026;-47
2022/09/19 14:21:02;;;;;;;14.15;1.75;;;;;;;;;;5014093;28;20042;-47
2022/09/19 14:23:32;;;;;;;6.03;0.93;;;;;;;;;;5014884;28;20443;-46
2022/09/19 14:26:00;;;;;;;9.00;0.98;;;;;;;;;;5013130;28;20029;-46
2022/09/19 14:28:27;;;;;;;2.75;0.70;;;;;;;;;;5014113;28;20492;-46
2022/09/19 14:31:04;;;;;;;9.57;0.98;;;;;;;;;;5013828;28;20404;-46
2022/09/19 14:33:43;;;;;;;6.93;0.77;;;;;;;;;;4992080;28;20514;-47
2022/09/19 14:36:13;;;;;;;7.63;0.95;;;;;;;;;;4976690;28;20074;-46
2022/09/19 14:38:51;;;;;;;4.03;0.88;;;;;;;;;;4993669;28;20023;-46
2022/09/19 14:41:25;;;;;;;4.47;0.70;;;;;;;;;;4990451;28;20039;-47
2022/09/19 14:44:15;;;;;;;4.65;0.70;;;;;;;;;;4973605;28;20023;-45
2022/09/19 14:47:02;;;;;;;8.70;1.00;;;;;;;;;;4975747;28;20042;-56
2022/09/19 14:49:33;;;;;;;10.88;0.95;;;;;;;;;;4991881;28;20070;-53
2022/09/19 14:52:08;;;;;;;6.63;1.10;;;;;;;;;;4994377;28;20046;-46
2022/09/19 14:54:54;;;;;;;15.57;1.30;;;;;;;;;;4994393;28;20118;-48
2022/09/19 14:57:22;;;;;;;21.33;1.55;;;;;;;;;;4994848;28;20045;-48
2022/09/19 14:59:51;;;;;;;8.90;1.42;;;;;;;;;;4994409;28;20611;-45
2022/09/19 15:02:31;;;;;;;10.25;2.10;;;;;;;;;;4992848;28;20120;-45
2022/09/19 15:05:03;;;;;;;19.67;2.53;;;;;;;;;;4998634;28;20061;-46
2022/09/19 15:07:31;;;;;;;19.50;3.40;;;;;;;;;;4987330;28;20551;-46
2022/09/19 15:09:59;;;;;;;20.77;2.90;;;;;;;;;;4987852;28;20027;-45
2022/09/19 15:12:25;;;;;;;21.00;3.42;;;;;;;;;;4990699;28;20535;-46
2022/09/19 15:14:55;;;;;;;16.95;3.33;;;;;;;;;;4992438;28;20030;-46
2022/09/19 15:17:33;;;;;;;21.63;5.05;;;;;;;;;;4992771;28;20034;-46
2022/09/19 15:20:00;;;;;;;51.97;11.60;;;;;;;;;;4989415;28;20457;-47
2022/09/19 15:22:32;;;;;;;71.82;17.70;;;;;;;;;;4989608;28;20057;-46
2022/09/19 15:25:02;;;;;;;98.32;23.15;;;;;;;;;;5008399;28;20515;-46
2022/09/19 15:27:31;;;;;;;136.93;31.83;;;;;;;;;;4984537;28;20033;-46
2022/09/19 15:29:58;;;;;;;202.13;45.20;;;;;;;;;;4979468;28;20038;-46
2022/09/19 15:32:32;;;;;;;231.38;50.72;;;;;;;;;;4973229;28;20481;-50
2022/09/19 15:34:59;;;;;;;216.82;48.47;;;;;;;;;;4976577;28;20042;-47
2022/09/19 15:37:31;;;;;;;248.35;52.83;;;;;;;;;;4992683;28;20088;-45